sensor_id;sensor_type;location;lat;lon;timestamp;temperature;humidity
75210;DHT22;63796;53.136;14.882;2022-11-18T00:01:12;1.30;99.90
75210;DHT22;63796;53.136;14.882;2022-11-18T00:03:40;1.20;99.90
75210;DHT22;63796;53.136;14.882;2022-11-18T00:06:13;1.20;99.90
75210;DHT22;63796;53.136;14.882;2022-11-18T00:08:42;1.20;99.90
75210;DHT22;63796;53.136;14.882;2022-11-18T00:11:11;1.40;99.90
75210;DHT22;63796;53.136;14.882;2022-11-18T00:13:57;1.40;99.90
75210;DHT22;63796;53.136;14.882;2022-11-18T00:16:43;1.40;99.90
75210;DHT22;63796;53.136;14.882;2022-11-18T00:19:10;1.20;99.90
75210;DHT22;63796;53.136;14.882;2022-11-18T00:21:37;1.20;99.90
75210;DHT22;63796;53.136;14.882;2022-11-18T00:24:04;1.20;99.90
75210;DHT22;63796;53.136;14.882;2022-11-18T00:26:31;1.00;99.90
75210;DHT22;63796;53.136;14.882;2022-11-18T00:28:58;1.00;99.90
75210;DHT22;63796;53.136;14.882;2022-11-18T00:31:25;1.00;99.90
75210;DHT22;63796;53.136;14.882;2022-11-18T00:33:52;1.10;99.90
75210;DHT22;63796;53.136;14.882;2022-11-18T00:36:19;1.10;99.90
75210;DHT22;63796;53.136;14.882;2022-11-18T00:38:46;1.10;99.90
75210;DHT22;63796;53.136;14.882;2022-11-18T00:41:14;1.00;99.90
75210;DHT22;63796;53.136;14.882;2022-11-18T00:43:44;1.00;99.90
75210;DHT22;63796;53.136;14.882;2022-11-18T00:46:12;1.10;99.90
75210;DHT22;63796;53.136;14.882;2022-11-18T00:48:39;1.10;99.90
75210;DHT22;63796;53.136;14.882;2022-11-18T00:51:15;1.00;99.90
75210;DHT22;63796;53.136;14.882;2022-11-18T00:53:43;1.10;99.90
75210;DHT22;63796;53.136;14.882;2022-11-18T00:56:10;1.10;99.90
75210;DHT22;63796;53.136;14.882;2022-11-18T00:58:37;1.20;99.90
75210;DHT22;63796;53.136;14.882;2022-11-18T01:01:04;1.20;99.90
75210;DHT22;63796;53.136;14.882;2022-11-18T01:03:31;1.30;99.90
75210;DHT22;63796;53.136;14.882;2022-11-18T01:05:58;1.30;99.90
75210;DHT22;63796;53.136;14.882;2022-11-18T01:08:25;1.20;99.90
75210;DHT22;63796;53.136;14.882;2022-11-18T01:10:52;1.10;99.90
75210;DHT22;63796;53.136;14.882;2022-11-18T01:13:20;0.90;99.90
75210;DHT22;63796;53.136;14.882;2022-11-18T01:15:56;1.00;99.90
75210;DHT22;63796;53.136;14.882;2022-11-18T01:18:26;1.00;99.90
75210;DHT22;63796;53.136;14.882;2022-11-18T01:21:00;1.10;99.90
75210;DHT22;63796;53.136;14.882;2022-11-18T01:23:28;1.10;99.90
75210;DHT22;63796;53.136;14.882;2022-11-18T01:25:55;1.10;99.90
75210;DHT22;63796;53.136;14.882;2022-11-18T01:28:22;1.20;99.90
75210;DHT22;63796;53.136;14.882;2022-11-18T01:30:49;1.10;99.90
75210;DHT22;63796;53.136;14.882;2022-11-18T01:33:16;1.20;99.90
75210;DHT22;63796;53.136;14.882;2022-11-18T01:35:44;1.20;99.90
75210;DHT22;63796;53.136;14.882;2022-11-18T01:38:12;1.10;99.90
75210;DHT22;63796;53.136;14.882;2022-11-18T01:40:40;1.30;99.90
75210;DHT22;63796;53.136;14.882;2022-11-18T01:43:14;1.20;99.90
75210;DHT22;63796;53.136;14.882;2022-11-18T01:45:40;1.10;99.90
75210;DHT22;63796;53.136;14.882;2022-11-18T01:48:18;1.10;99.90
75210;DHT22;63796;53.136;14.882;2022-11-18T01:50:54;1.00;99.90
75210;DHT22;63796;53.136;14.882;2022-11-18T01:53:32;1.00;99.90
75210;DHT22;63796;53.136;14.882;2022-11-18T01:56:05;1.10;99.90
75210;DHT22;63796;53.136;14.882;2022-11-18T01:58:37;1.00;99.90
75210;DHT22;63796;53.136;14.882;2022-11-18T02:01:06;0.90;99.90
75210;DHT22;63796;53.136;14.882;2022-11-18T02:03:34;0.80;99.90
75210;DHT22;63796;53.136;14.882;2022-11-18T02:06:04;0.80;99.90
75210;DHT22;63796;53.136;14.882;2022-11-18T02:08:32;0.60;99.90
75210;DHT22;63796;53.136;14.882;2022-11-18T02:11:03;0.50;99.90
75210;DHT22;63796;53.136;14.882;2022-11-18T02:13:30;0.50;99.90
75210;DHT22;63796;53.136;14.882;2022-11-18T02:16:19;0.50;99.90
75210;DHT22;63796;53.136;14.882;2022-11-18T02:19:03;0.50;99.90
75210;DHT22;63796;53.136;14.882;2022-11-18T02:31:05;0.40;99.90
75210;DHT22;63796;53.136;14.882;2022-11-18T02:33:51;0.50;99.90
75210;DHT22;63796;53.136;14.882;2022-11-18T02:36:42;0.50;99.90
75210;DHT22;63796;53.136;14.882;2022-11-18T02:39:27;0.40;99.90
75210;DHT22;63796;53.136;14.882;2022-11-18T02:41:53;0.30;99.90
75210;DHT22;63796;53.136;14.882;2022-11-18T02:44:23;0.20;99.90
75210;DHT22;63796;53.136;14.882;2022-11-18T02:46:54;0.20;99.90
75210;DHT22;63796;53.136;14.882;2022-11-18T02:49:39;0.20;99.90
75210;DHT22;63796;53.136;14.882;2022-11-18T02:52:09;0.20;99.90
75210;DHT22;63796;53.136;14.882;2022-11-18T02:54:40;0.20;99.90
75210;DHT22;63796;53.136;14.882;2022-11-18T02:57:08;0.20;99.90
75210;DHT22;63796;53.136;14.882;2022-11-18T02:59:37;0.30;99.90
75210;DHT22;63796;53.136;14.882;2022-11-18T03:02:04;0.20;99.90
75210;DHT22;63796;53.136;14.882;2022-11-18T03:04:33;0.20;99.90
75210;DHT22;63796;53.136;14.882;2022-11-18T03:07:21;0.20;99.90
75210;DHT22;63796;53.136;14.882;2022-11-18T03:09:50;0.20;99.90
75210;DHT22;63796;53.136;14.882;2022-11-18T03:12:45;0.20;99.90
75210;DHT22;63796;53.136;14.882;2022-11-18T03:15:32;0.20;99.90
75210;DHT22;63796;53.136;14.882;2022-11-18T03:18:26;0.10;99.90
75210;DHT22;63796;53.136;14.882;2022-11-18T03:21:04;0.00;99.90
75210;DHT22;63796;53.136;14.882;2022-11-18T03:26:28;0.00;99.90
75210;DHT22;63796;53.136;14.882;2022-11-18T03:31:52;-0.10;99.90
75210;DHT22;63796;53.136;14.882;2022-11-18T03:34:27;-0.10;99.90
75210;DHT22;63796;53.136;14.882;2022-11-18T03:36:55;-0.20;99.90
75210;DHT22;63796;53.136;14.882;2022-11-18T03:39:25;-0.20;99.90
75210;DHT22;63796;53.136;14.882;2022-11-18T03:42:03;-0.20;99.90
75210;DHT22;63796;53.136;14.882;2022-11-18T03:44:39;-0.20;99.90
75210;DHT22;63796;53.136;14.882;2022-11-18T03:47:14;-0.20;99.90
75210;DHT22;63796;53.136;14.882;2022-11-18T03:49:56;-0.20;99.90
75210;DHT22;63796;53.136;14.882;2022-11-18T03:52:29;0.00;99.90
75210;DHT22;63796;53.136;14.882;2022-11-18T03:55:01;0.00;99.90
75210;DHT22;63796;53.136;14.882;2022-11-18T03:57:36;0.20;99.90
75210;DHT22;63796;53.136;14.882;2022-11-18T04:00:19;0.30;99.90
75210;DHT22;63796;53.136;14.882;2022-11-18T04:02:48;0.40;99.90
75210;DHT22;63796;53.136;14.882;2022-11-18T04:05:16;0.40;99.90
75210;DHT22;63796;53.136;14.882;2022-11-18T04:07:58;0.50;99.90
75210;DHT22;63796;53.136;14.882;2022-11-18T04:10:33;0.50;99.90
75210;DHT22;63796;53.136;14.882;2022-11-18T04:15:43;0.30;99.90
75210;DHT22;63796;53.136;14.882;2022-11-18T04:18:10;0.20;99.90
75210;DHT22;63796;53.136;14.882;2022-11-18T04:20:37;0.10;99.90
75210;DHT22;63796;53.136;14.882;2022-11-18T04:23:05;0.10;99.90
75210;DHT22;63796;53.136;14.882;2022-11-18T04:25:33;0.10;99.90
75210;DHT22;63796;53.136;14.882;2022-11-18T04:28:01;0.20;99.90
75210;DHT22;63796;53.136;14.882;2022-11-18T04:30:29;0.30;99.90
75210;DHT22;63796;53.136;14.882;2022-11-18T04:32:56;0.20;99.90
75210;DHT22;63796;53.136;14.882;2022-11-18T04:35:24;0.20;99.90
75210;DHT22;63796;53.136;14.882;2022-11-18T04:37:52;0.20;99.90
75210;DHT22;63796;53.136;14.882;2022-11-18T04:40:19;0.10;99.90
75210;DHT22;63796;53.136;14.882;2022-11-18T04:42:46;0.20;99.90
75210;DHT22;63796;53.136;14.882;2022-11-18T04:45:13;0.20;99.90
75210;DHT22;63796;53.136;14.882;2022-11-18T04:47:40;0.10;99.90
75210;DHT22;63796;53.136;14.882;2022-11-18T04:50:08;0.10;99.90
75210;DHT22;63796;53.136;14.882;2022-11-18T04:52:35;0.10;99.90
75210;DHT22;63796;53.136;14.882;2022-11-18T04:55:02;0.10;99.90
75210;DHT22;63796;53.136;14.882;2022-11-18T04:57:29;0.30;99.90
75210;DHT22;63796;53.136;14.882;2022-11-18T04:59:56;0.40;99.90
75210;DHT22;63796;53.136;14.882;2022-11-18T05:02:23;0.50;99.90
75210;DHT22;63796;53.136;14.882;2022-11-18T05:04:49;0.60;99.90
75210;DHT22;63796;53.136;14.882;2022-11-18T05:07:16;0.60;99.90
75210;DHT22;63796;53.136;14.882;2022-11-18T05:09:43;0.60;99.90
75210;DHT22;63796;53.136;14.882;2022-11-18T05:12:12;0.70;99.90
75210;DHT22;63796;53.136;14.882;2022-11-18T05:14:58;0.80;99.90
75210;DHT22;63796;53.136;14.882;2022-11-18T05:17:26;0.90;99.90
75210;DHT22;63796;53.136;14.882;2022-11-18T05:19:53;0.90;99.90
75210;DHT22;63796;53.136;14.882;2022-11-18T05:22:20;0.50;99.90
75210;DHT22;63796;53.136;14.882;2022-11-18T05:24:47;0.50;99.90
75210;DHT22;63796;53.136;14.882;2022-11-18T05:27:14;0.40;99.90
75210;DHT22;63796;53.136;14.882;2022-11-18T05:29:42;0.40;99.90
75210;DHT22;63796;53.136;14.882;2022-11-18T05:32:09;0.40;99.90
75210;DHT22;63796;53.136;14.882;2022-11-18T05:34:36;0.40;99.90
75210;DHT22;63796;53.136;14.882;2022-11-18T05:37:03;0.50;99.90
75210;DHT22;63796;53.136;14.882;2022-11-18T05:39:31;0.60;99.90
75210;DHT22;63796;53.136;14.882;2022-11-18T05:41:59;0.50;99.90
75210;DHT22;63796;53.136;14.882;2022-11-18T05:44:45;0.40;99.90
75210;DHT22;63796;53.136;14.882;2022-11-18T05:47:12;0.30;99.90
75210;DHT22;63796;53.136;14.882;2022-11-18T05:49:39;0.40;99.90
75210;DHT22;63796;53.136;14.882;2022-11-18T05:52:06;0.50;99.90
75210;DHT22;63796;53.136;14.882;2022-11-18T05:54:33;0.40;99.90
75210;DHT22;63796;53.136;14.882;2022-11-18T05:57:00;0.60;99.90
75210;DHT22;63796;53.136;14.882;2022-11-18T05:59:27;0.40;99.90
75210;DHT22;63796;53.136;14.882;2022-11-18T06:02:00;0.40;99.90
75210;DHT22;63796;53.136;14.882;2022-11-18T06:04:53;0.30;99.90
75210;DHT22;63796;53.136;14.882;2022-11-18T06:07:25;0.30;99.90
75210;DHT22;63796;53.136;14.882;2022-11-18T06:10:01;0.40;99.90
75210;DHT22;63796;53.136;14.882;2022-11-18T06:12:32;0.40;99.90
75210;DHT22;63796;53.136;14.882;2022-11-18T06:15:14;0.40;99.90
75210;DHT22;63796;53.136;14.882;2022-11-18T06:17:43;0.40;99.90
75210;DHT22;63796;53.136;14.882;2022-11-18T06:20:12;0.30;99.90
75210;DHT22;63796;53.136;14.882;2022-11-18T06:22:42;0.30;99.90
75210;DHT22;63796;53.136;14.882;2022-11-18T06:25:08;0.50;99.90
75210;DHT22;63796;53.136;14.882;2022-11-18T06:27:35;0.40;99.90
75210;DHT22;63796;53.136;14.882;2022-11-18T06:30:03;0.40;99.90
75210;DHT22;63796;53.136;14.882;2022-11-18T06:32:30;0.40;99.90
75210;DHT22;63796;53.136;14.882;2022-11-18T06:34:57;0.50;99.90
75210;DHT22;63796;53.136;14.882;2022-11-18T06:37:24;0.40;99.90
75210;DHT22;63796;53.136;14.882;2022-11-18T06:39:51;0.40;99.90
75210;DHT22;63796;53.136;14.882;2022-11-18T06:42:18;0.40;99.90
75210;DHT22;63796;53.136;14.882;2022-11-18T06:45:04;0.40;99.90
75210;DHT22;63796;53.136;14.882;2022-11-18T06:47:31;0.60;99.90
75210;DHT22;63796;53.136;14.882;2022-11-18T06:49:58;0.50;99.90
75210;DHT22;63796;53.136;14.882;2022-11-18T06:52:25;0.50;99.90
75210;DHT22;63796;53.136;14.882;2022-11-18T06:54:53;0.50;99.90
75210;DHT22;63796;53.136;14.882;2022-11-18T06:57:19;0.40;99.90
75210;DHT22;63796;53.136;14.882;2022-11-18T06:59:46;0.30;99.90
75210;DHT22;63796;53.136;14.882;2022-11-18T07:02:13;0.40;99.90
75210;DHT22;63796;53.136;14.882;2022-11-18T07:04:40;0.40;99.90
75210;DHT22;63796;53.136;14.882;2022-11-18T07:07:07;0.50;99.90
75210;DHT22;63796;53.136;14.882;2022-11-18T07:09:35;0.50;99.90
75210;DHT22;63796;53.136;14.882;2022-11-18T07:12:03;0.60;99.90
75210;DHT22;63796;53.136;14.882;2022-11-18T07:14:30;0.40;99.90
75210;DHT22;63796;53.136;14.882;2022-11-18T07:16:57;0.30;99.90
75210;DHT22;63796;53.136;14.882;2022-11-18T07:19:24;0.40;99.90
75210;DHT22;63796;53.136;14.882;2022-11-18T07:21:51;0.40;99.90
75210;DHT22;63796;53.136;14.882;2022-11-18T07:24:18;0.60;99.90
75210;DHT22;63796;53.136;14.882;2022-11-18T07:26:45;0.70;99.90
75210;DHT22;63796;53.136;14.882;2022-11-18T07:29:12;0.60;99.90
75210;DHT22;63796;53.136;14.882;2022-11-18T07:31:39;0.50;99.90
75210;DHT22;63796;53.136;14.882;2022-11-18T07:34:06;0.60;99.90
75210;DHT22;63796;53.136;14.882;2022-11-18T07:36:33;0.60;99.90
75210;DHT22;63796;53.136;14.882;2022-11-18T07:39:01;0.80;99.90
75210;DHT22;63796;53.136;14.882;2022-11-18T07:41:29;0.80;99.90
75210;DHT22;63796;53.136;14.882;2022-11-18T07:43:59;0.50;99.90
75210;DHT22;63796;53.136;14.882;2022-11-18T07:46:33;0.60;99.90
75210;DHT22;63796;53.136;14.882;2022-11-18T07:49:05;0.40;99.90
75210;DHT22;63796;53.136;14.882;2022-11-18T07:51:36;0.60;99.90
75210;DHT22;63796;53.136;14.882;2022-11-18T07:54:06;0.70;99.90
75210;DHT22;63796;53.136;14.882;2022-11-18T07:56:34;0.90;99.90
75210;DHT22;63796;53.136;14.882;2022-11-18T07:59:01;0.90;99.90
75210;DHT22;63796;53.136;14.882;2022-11-18T08:01:28;1.10;99.90
75210;DHT22;63796;53.136;14.882;2022-11-18T08:03:56;1.10;99.90
75210;DHT22;63796;53.136;14.882;2022-11-18T08:06:25;1.00;99.90
75210;DHT22;63796;53.136;14.882;2022-11-18T08:08:52;1.10;99.90
75210;DHT22;63796;53.136;14.882;2022-11-18T08:11:19;1.10;99.90
75210;DHT22;63796;53.136;14.882;2022-11-18T08:13:46;1.00;99.90
75210;DHT22;63796;53.136;14.882;2022-11-18T08:16:15;1.00;99.90
75210;DHT22;63796;53.136;14.882;2022-11-18T08:18:44;1.20;99.90
75210;DHT22;63796;53.136;14.882;2022-11-18T08:21:12;1.40;99.90
75210;DHT22;63796;53.136;14.882;2022-11-18T08:23:40;1.60;99.90
75210;DHT22;63796;53.136;14.882;2022-11-18T08:26:13;1.20;99.90
75210;DHT22;63796;53.136;14.882;2022-11-18T08:28:41;1.30;99.90
75210;DHT22;63796;53.136;14.882;2022-11-18T08:31:10;1.30;99.90
75210;DHT22;63796;53.136;14.882;2022-11-18T08:33:39;1.30;99.90
75210;DHT22;63796;53.136;14.882;2022-11-18T08:36:15;1.50;99.90
75210;DHT22;63796;53.136;14.882;2022-11-18T08:38:47;1.50;99.90
75210;DHT22;63796;53.136;14.882;2022-11-18T08:41:16;1.40;99.90
75210;DHT22;63796;53.136;14.882;2022-11-18T08:43:46;1.50;99.90
75210;DHT22;63796;53.136;14.882;2022-11-18T08:46:13;2.00;99.90
75210;DHT22;63796;53.136;14.882;2022-11-18T08:48:40;2.30;99.90
75210;DHT22;63796;53.136;14.882;2022-11-18T08:51:09;2.60;99.90
75210;DHT22;63796;53.136;14.882;2022-11-18T08:53:37;3.00;99.90
75210;DHT22;63796;53.136;14.882;2022-11-18T08:56:04;3.50;99.90
75210;DHT22;63796;53.136;14.882;2022-11-18T08:58:31;3.50;99.20
75210;DHT22;63796;53.136;14.882;2022-11-18T09:01:05;3.20;99.30
75210;DHT22;63796;53.136;14.882;2022-11-18T09:03:33;3.60;99.10
75210;DHT22;63796;53.136;14.882;2022-11-18T09:06:21;3.70;98.20
75210;DHT22;63796;53.136;14.882;2022-11-18T09:08:51;4.00;97.10
75210;DHT22;63796;53.136;14.882;2022-11-18T09:11:20;3.80;98.10
75210;DHT22;63796;53.136;14.882;2022-11-18T09:13:54;4.30;96.10
75210;DHT22;63796;53.136;14.882;2022-11-18T09:16:24;5.20;93.20
75210;DHT22;63796;53.136;14.882;2022-11-18T09:18:54;6.30;91.40
75210;DHT22;63796;53.136;14.882;2022-11-18T09:21:22;7.80;84.70
75210;DHT22;63796;53.136;14.882;2022-11-18T09:23:50;7.80;78.00
75210;DHT22;63796;53.136;14.882;2022-11-18T09:26:19;5.60;89.30
75210;DHT22;63796;53.136;14.882;2022-11-18T09:28:51;6.50;86.70
75210;DHT22;63796;53.136;14.882;2022-11-18T09:31:18;8.30;80.00
75210;DHT22;63796;53.136;14.882;2022-11-18T09:33:45;8.30;76.70
75210;DHT22;63796;53.136;14.882;2022-11-18T09:36:23;7.90;75.70
75210;DHT22;63796;53.136;14.882;2022-11-18T09:38:46;7.80;75.90
75210;DHT22;63796;53.136;14.882;2022-11-18T09:50:02;7.50;76.80
75210;DHT22;63796;53.136;14.882;2022-11-18T09:52:30;8.80;72.10
75210;DHT22;63796;53.136;14.882;2022-11-18T09:55:00;10.80;68.10
75210;DHT22;63796;53.136;14.882;2022-11-18T09:57:37;11.70;62.10
75210;DHT22;63796;53.136;14.882;2022-11-18T10:00:22;10.30;63.20
75210;DHT22;63796;53.136;14.882;2022-11-18T10:05:35;9.90;65.30
75210;DHT22;63796;53.136;14.882;2022-11-18T10:08:26;10.40;64.90
75210;DHT22;63796;53.136;14.882;2022-11-18T10:11:09;9.80;63.30
75210;DHT22;63796;53.136;14.882;2022-11-18T10:24:50;10.70;62.70
75210;DHT22;63796;53.136;14.882;2022-11-18T10:27:20;10.70;60.40
75210;DHT22;63796;53.136;14.882;2022-11-18T10:29:54;9.40;66.70
75210;DHT22;63796;53.136;14.882;2022-11-18T10:32:23;9.50;66.10
75210;DHT22;63796;53.136;14.882;2022-11-18T10:34:53;9.10;67.60
75210;DHT22;63796;53.136;14.882;2022-11-18T10:39:57;9.20;68.70
75210;DHT22;63796;53.136;14.882;2022-11-18T10:42:42;8.60;69.50
75210;DHT22;63796;53.136;14.882;2022-11-18T10:45:29;7.70;70.50
75210;DHT22;63796;53.136;14.882;2022-11-18T10:48:01;7.10;74.60
75210;DHT22;63796;53.136;14.882;2022-11-18T10:53:33;8.80;70.00
75210;DHT22;63796;53.136;14.882;2022-11-18T10:56:04;6.90;72.90
75210;DHT22;63796;53.136;14.882;2022-11-18T10:58:35;5.80;79.20
75210;DHT22;63796;53.136;14.882;2022-11-18T11:01:07;5.10;83.40
75210;DHT22;63796;53.136;14.882;2022-11-18T11:04:11;4.60;85.80
75210;DHT22;63796;53.136;14.882;2022-11-18T11:06:44;4.30;88.80
75210;DHT22;63796;53.136;14.882;2022-11-18T11:09:26;6.00;83.00
75210;DHT22;63796;53.136;14.882;2022-11-18T11:12:17;6.20;80.00
75210;DHT22;63796;53.136;14.882;2022-11-18T11:14:55;6.80;79.10
75210;DHT22;63796;53.136;14.882;2022-11-18T11:17:33;7.40;74.50
75210;DHT22;63796;53.136;14.882;2022-11-18T11:20:22;8.50;71.90
75210;DHT22;63796;53.136;14.882;2022-11-18T11:22:49;9.30;70.50
75210;DHT22;63796;53.136;14.882;2022-11-18T11:25:52;7.80;71.80
75210;DHT22;63796;53.136;14.882;2022-11-18T11:37:28;9.10;70.30
75210;DHT22;63796;53.136;14.882;2022-11-18T11:45:51;8.60;68.70
75210;DHT22;63796;53.136;14.882;2022-11-18T11:51:35;7.70;72.10
75210;DHT22;63796;53.136;14.882;2022-11-18T11:54:15;7.60;74.10
75210;DHT22;63796;53.136;14.882;2022-11-18T11:57:36;6.80;76.30
75210;DHT22;63796;53.136;14.882;2022-11-18T12:00:20;6.00;77.80
75210;DHT22;63796;53.136;14.882;2022-11-18T12:05:50;5.40;80.80
75210;DHT22;63796;53.136;14.882;2022-11-18T12:08:24;5.10;83.00
75210;DHT22;63796;53.136;14.882;2022-11-18T12:11:09;5.10;83.10
75210;DHT22;63796;53.136;14.882;2022-11-18T12:14:00;5.40;82.00
75210;DHT22;63796;53.136;14.882;2022-11-18T12:17:18;5.10;82.20
75210;DHT22;63796;53.136;14.882;2022-11-18T12:19:37;5.80;82.40
75210;DHT22;63796;53.136;14.882;2022-11-18T12:22:05;5.60;81.30
75210;DHT22;63796;53.136;14.882;2022-11-18T12:24:34;5.50;81.50
75210;DHT22;63796;53.136;14.882;2022-11-18T12:29:55;5.70;81.70
75210;DHT22;63796;53.136;14.882;2022-11-18T12:32:38;5.30;81.60
75210;DHT22;63796;53.136;14.882;2022-11-18T12:35:33;4.80;82.10
75210;DHT22;63796;53.136;14.882;2022-11-18T12:37:59;5.20;82.70
75210;DHT22;63796;53.136;14.882;2022-11-18T12:51:59;5.90;81.50
75210;DHT22;63796;53.136;14.882;2022-11-18T12:57:20;5.80;81.60
75210;DHT22;63796;53.136;14.882;2022-11-18T12:59:55;6.20;80.90
75210;DHT22;63796;53.136;14.882;2022-11-18T13:02:24;6.40;80.40
75210;DHT22;63796;53.136;14.882;2022-11-18T13:07:44;6.50;79.40
75210;DHT22;63796;53.136;14.882;2022-11-18T13:10:38;6.20;79.50
75210;DHT22;63796;53.136;14.882;2022-11-18T13:13:22;6.10;78.40
75210;DHT22;63796;53.136;14.882;2022-11-18T13:15:52;5.90;79.20
75210;DHT22;63796;53.136;14.882;2022-11-18T13:18:50;5.90;79.00
75210;DHT22;63796;53.136;14.882;2022-11-18T13:21:24;5.90;79.70
75210;DHT22;63796;53.136;14.882;2022-11-18T13:24:13;5.30;80.50
75210;DHT22;63796;53.136;14.882;2022-11-18T13:26:44;5.10;81.20
75210;DHT22;63796;53.136;14.882;2022-11-18T13:29:43;4.80;82.60
75210;DHT22;63796;53.136;14.882;2022-11-18T13:32:23;4.80;83.80
75210;DHT22;63796;53.136;14.882;2022-11-18T13:35:09;4.90;83.10
75210;DHT22;63796;53.136;14.882;2022-11-18T13:37:54;4.90;83.30
75210;DHT22;63796;53.136;14.882;2022-11-18T13:40:28;4.80;83.30
75210;DHT22;63796;53.136;14.882;2022-11-18T13:42:57;4.70;84.20
75210;DHT22;63796;53.136;14.882;2022-11-18T13:45:27;4.60;85.00
75210;DHT22;63796;53.136;14.882;2022-11-18T13:47:59;4.50;84.90
75210;DHT22;63796;53.136;14.882;2022-11-18T13:50:37;4.20;86.00
75210;DHT22;63796;53.136;14.882;2022-11-18T13:53:34;4.30;87.40
75210;DHT22;63796;53.136;14.882;2022-11-18T13:58:44;4.40;86.30
75210;DHT22;63796;53.136;14.882;2022-11-18T14:01:24;4.30;87.60
75210;DHT22;63796;53.136;14.882;2022-11-18T14:04:00;4.30;86.40
75210;DHT22;63796;53.136;14.882;2022-11-18T14:12:04;4.10;86.10
75210;DHT22;63796;53.136;14.882;2022-11-18T14:14:37;4.30;86.30
75210;DHT22;63796;53.136;14.882;2022-11-18T14:19:54;4.30;86.40
75210;DHT22;63796;53.136;14.882;2022-11-18T14:22:24;4.20;86.90
75210;DHT22;63796;53.136;14.882;2022-11-18T14:24:58;4.20;88.30
75210;DHT22;63796;53.136;14.882;2022-11-18T14:27:48;4.20;88.40
75210;DHT22;63796;53.136;14.882;2022-11-18T14:30:32;4.10;89.40
75210;DHT22;63796;53.136;14.882;2022-11-18T14:36:00;3.90;90.00
75210;DHT22;63796;53.136;14.882;2022-11-18T14:41:16;3.70;90.40
75210;DHT22;63796;53.136;14.882;2022-11-18T14:43:45;3.60;90.80
75210;DHT22;63796;53.136;14.882;2022-11-18T14:46:15;3.50;90.70
75210;DHT22;63796;53.136;14.882;2022-11-18T14:48:43;3.40;91.00
75210;DHT22;63796;53.136;14.882;2022-11-18T14:51:15;3.30;91.30
75210;DHT22;63796;53.136;14.882;2022-11-18T14:53:44;3.30;91.60
75210;DHT22;63796;53.136;14.882;2022-11-18T14:56:23;3.10;91.70
75210;DHT22;63796;53.136;14.882;2022-11-18T14:58:55;3.10;92.00
75210;DHT22;63796;53.136;14.882;2022-11-18T15:01:23;3.00;92.20
75210;DHT22;63796;53.136;14.882;2022-11-18T15:03:50;2.90;92.50
75210;DHT22;63796;53.136;14.882;2022-11-18T15:06:19;2.90;92.70
75210;DHT22;63796;53.136;14.882;2022-11-18T15:08:51;2.80;92.80
75210;DHT22;63796;53.136;14.882;2022-11-18T15:11:17;3.00;93.00
75210;DHT22;63796;53.136;14.882;2022-11-18T15:13:44;3.10;92.30
75210;DHT22;63796;53.136;14.882;2022-11-18T15:16:20;3.00;92.70
75210;DHT22;63796;53.136;14.882;2022-11-18T15:18:53;2.90;92.70
75210;DHT22;63796;53.136;14.882;2022-11-18T15:21:22;2.80;93.00
75210;DHT22;63796;53.136;14.882;2022-11-18T15:23:50;2.80;93.10
75210;DHT22;63796;53.136;14.882;2022-11-18T15:28:54;2.60;93.50
75210;DHT22;63796;53.136;14.882;2022-11-18T15:31:22;2.60;93.70
75210;DHT22;63796;53.136;14.882;2022-11-18T15:33:50;2.50;94.10
75210;DHT22;63796;53.136;14.882;2022-11-18T15:36:23;2.40;94.20
75210;DHT22;63796;53.136;14.882;2022-11-18T15:38:49;2.40;94.20
75210;DHT22;63796;53.136;14.882;2022-11-18T15:41:19;2.30;94.50
75210;DHT22;63796;53.136;14.882;2022-11-18T15:43:52;2.30;94.80
75210;DHT22;63796;53.136;14.882;2022-11-18T15:46:22;2.10;95.40
75210;DHT22;63796;53.136;14.882;2022-11-18T15:48:51;2.00;95.90
75210;DHT22;63796;53.136;14.882;2022-11-18T15:51:20;2.00;96.20
75210;DHT22;63796;53.136;14.882;2022-11-18T15:53:47;2.00;96.40
75210;DHT22;63796;53.136;14.882;2022-11-18T15:59:00;1.90;96.80
75210;DHT22;63796;53.136;14.882;2022-11-18T16:01:33;1.90;97.20
75210;DHT22;63796;53.136;14.882;2022-11-18T16:04:06;1.90;97.50
75210;DHT22;63796;53.136;14.882;2022-11-18T16:06:32;1.80;97.80
75210;DHT22;63796;53.136;14.882;2022-11-18T16:08:59;1.80;97.90
75210;DHT22;63796;53.136;14.882;2022-11-18T16:11:27;1.70;98.20
75210;DHT22;63796;53.136;14.882;2022-11-18T16:14:14;1.60;98.50
75210;DHT22;63796;53.136;14.882;2022-11-18T16:16:43;1.60;99.20
75210;DHT22;63796;53.136;14.882;2022-11-18T16:19:14;1.60;99.40
75210;DHT22;63796;53.136;14.882;2022-11-18T16:21:45;1.60;99.90
75210;DHT22;63796;53.136;14.882;2022-11-18T16:24:17;1.60;99.90
75210;DHT22;63796;53.136;14.882;2022-11-18T16:26:46;1.60;99.90
75210;DHT22;63796;53.136;14.882;2022-11-18T16:29:13;1.60;99.90
75210;DHT22;63796;53.136;14.882;2022-11-18T16:31:42;1.60;99.90
75210;DHT22;63796;53.136;14.882;2022-11-18T16:34:18;1.70;99.90
75210;DHT22;63796;53.136;14.882;2022-11-18T16:36:54;1.60;99.90
75210;DHT22;63796;53.136;14.882;2022-11-18T16:39:25;1.50;99.90
75210;DHT22;63796;53.136;14.882;2022-11-18T16:41:54;1.50;99.90
75210;DHT22;63796;53.136;14.882;2022-11-18T16:44:22;1.40;99.90
75210;DHT22;63796;53.136;14.882;2022-11-18T16:46:51;1.40;99.90
75210;DHT22;63796;53.136;14.882;2022-11-18T16:49:24;1.30;99.90
75210;DHT22;63796;53.136;14.882;2022-11-18T16:51:53;1.20;99.90
75210;DHT22;63796;53.136;14.882;2022-11-18T16:54:24;1.20;99.90
75210;DHT22;63796;53.136;14.882;2022-11-18T16:56:53;1.20;99.90
75210;DHT22;63796;53.136;14.882;2022-11-18T16:59:23;1.20;99.90
75210;DHT22;63796;53.136;14.882;2022-11-18T17:01:53;1.20;99.90
75210;DHT22;63796;53.136;14.882;2022-11-18T17:04:20;1.20;99.90
75210;DHT22;63796;53.136;14.882;2022-11-18T17:06:49;1.20;99.90
75210;DHT22;63796;53.136;14.882;2022-11-18T17:09:18;1.20;99.90
75210;DHT22;63796;53.136;14.882;2022-11-18T17:11:47;1.20;99.90
75210;DHT22;63796;53.136;14.882;2022-11-18T17:14:14;1.20;99.90
75210;DHT22;63796;53.136;14.882;2022-11-18T17:16:42;1.20;99.90
75210;DHT22;63796;53.136;14.882;2022-11-18T17:19:14;1.00;99.90
75210;DHT22;63796;53.136;14.882;2022-11-18T17:21:42;1.00;99.90
75210;DHT22;63796;53.136;14.882;2022-11-18T17:24:12;0.90;99.90
75210;DHT22;63796;53.136;14.882;2022-11-18T17:26:41;0.90;99.90
75210;DHT22;63796;53.136;14.882;2022-11-18T17:29:09;0.80;99.90
75210;DHT22;63796;53.136;14.882;2022-11-18T17:31:37;0.70;99.90
75210;DHT22;63796;53.136;14.882;2022-11-18T17:34:10;0.60;99.90
75210;DHT22;63796;53.136;14.882;2022-11-18T17:36:39;0.70;99.90
75210;DHT22;63796;53.136;14.882;2022-11-18T17:39:08;0.70;99.90
75210;DHT22;63796;53.136;14.882;2022-11-18T17:41:37;0.60;99.90
75210;DHT22;63796;53.136;14.882;2022-11-18T17:44:22;0.70;99.90
75210;DHT22;63796;53.136;14.882;2022-11-18T17:46:49;0.70;99.90
75210;DHT22;63796;53.136;14.882;2022-11-18T17:49:17;0.60;99.90